Time;durP1;ratioP1;P1;durP2;ratioP2;P2;SDS_P1;SDS_P2;PMS_P1;PMS_P2;Temp;Humidity;BMP_temperature;BMP_pressure;BME280_temperature;BME280_humidity;BME280_pressure;Samples;Min_cycle;Max_cycle;Signal;HPM_P1;HPM_P2
2023/03/03 00:01:14;;;;;;;38.57;24.90;;;;;;;1.90;nan;98317.34;5076236;28;20277;-76
2023/03/03 00:03:40;;;;;;;34.63;25.50;;;;;;;1.89;nan;98313.09;5075997;28;20228;-75
2023/03/03 00:06:10;;;;;;;36.13;24.43;;;;;;;1.85;nan;98308.34;5076069;28;20209;-75
2023/03/03 00:08:36;;;;;;;36.10;26.07;;;;;;;1.91;nan;98319.03;5076016;28;20766;-76
2023/03/03 00:11:05;;;;;;;37.90;25.33;;;;;;;1.82;nan;98314.72;5075190;28;20200;-75
2023/03/03 00:13:32;;;;;;;36.07;26.10;;;;;;;1.80;nan;98316.66;5075698;28;20586;-75
2023/03/03 00:16:38;;;;;;;37.33;25.67;;;;;;;1.73;nan;98313.06;5075648;28;20222;-75
2023/03/03 00:19:15;;;;;;;37.30;25.00;;;;;;;1.63;nan;98314.16;5033718;28;20205;-75
2023/03/03 00:21:44;;;;;;;36.43;24.67;;;;;;;1.61;nan;98314.28;5071184;28;20253;-75
2023/03/03 00:24:13;;;;;;;34.53;24.77;;;;;;;1.54;nan;98315.09;5075691;28;20224;-75
2023/03/03 00:26:42;;;;;;;38.77;27.00;;;;;;;1.50;nan;98309.34;5076259;28;20212;-75
2023/03/03 00:29:34;;;;;;;40.13;27.63;;;;;;;1.60;nan;98314.44;5075404;28;20212;-75
2023/03/03 00:32:21;;;;;;;35.80;24.93;;;;;;;1.50;nan;98311.13;5076276;28;20576;-75
2023/03/03 00:34:48;;;;;;;40.03;25.50;;;;;;;1.52;nan;98310.00;5075656;28;20181;-75
2023/03/03 00:37:31;;;;;;;39.60;25.63;;;;;;;1.44;nan;98315.19;5075471;28;20214;-75
2023/03/03 00:40:20;;;;;;;37.20;25.90;;;;;;;1.44;nan;98309.94;5075233;28;20636;-75
2023/03/03 00:42:56;;;;;;;38.43;25.90;;;;;;;1.34;nan;98305.78;5075614;28;20231;-75
2023/03/03 00:45:28;;;;;;;36.97;25.37;;;;;;;1.36;nan;98301.22;5075222;28;20632;-75
2023/03/03 00:47:54;;;;;;;37.23;25.90;;;;;;;1.30;nan;98307.09;5075300;28;20204;-75
2023/03/03 00:50:26;;;;;;;36.43;25.70;;;;;;;1.34;nan;98300.56;5075168;28;20201;-75
2023/03/03 00:53:05;;;;;;;40.37;26.73;;;;;;;1.46;nan;98299.31;5075128;28;20247;-75
2023/03/03 00:55:33;;;;;;;42.47;26.60;;;;;;;1.48;nan;98300.00;5075143;28;20200;-75
2023/03/03 00:57:59;;;;;;;42.37;26.47;;;;;;;1.44;nan;98298.66;5074978;28;20299;-75
2023/03/03 01:00:26;;;;;;;41.10;27.07;;;;;;;1.50;nan;98296.25;5074984;28;20204;-75
2023/03/03 01:02:52;;;;;;;34.30;24.53;;;;;;;1.44;nan;98298.66;5074816;28;20262;-75
2023/03/03 01:05:21;;;;;;;40.07;27.37;;;;;;;1.56;nan;98298.22;5074915;28;20204;-75
2023/03/03 01:07:47;;;;;;;38.33;25.57;;;;;;;1.55;nan;98295.75;5073650;28;20212;-76
2023/03/03 01:10:14;;;;;;;38.13;25.93;;;;;;;1.52;nan;98293.44;5074443;28;20205;-75
2023/03/03 01:12:40;;;;;;;35.10;25.53;;;;;;;1.47;nan;98290.47;5074753;28;20228;-76
2023/03/03 01:15:09;;;;;;;34.50;25.43;;;;;;;1.43;nan;98292.59;5074262;28;20218;-75
2023/03/03 01:17:38;;;;;;;36.50;26.67;;;;;;;1.37;nan;98288.00;5074557;28;20189;-76
2023/03/03 01:20:06;;;;;;;37.20;25.37;;;;;;;1.36;nan;98288.97;5073553;28;20200;-75
2023/03/03 01:22:32;;;;;;;35.33;25.37;;;;;;;1.42;nan;98296.19;5074235;28;20587;-75
2023/03/03 01:24:59;;;;;;;36.47;25.00;;;;;;;1.35;nan;98294.38;5074219;28;20231;-76
2023/03/03 01:27:27;;;;;;;37.93;25.63;;;;;;;1.30;nan;98301.88;5074163;28;20204;-75
2023/03/03 01:29:55;;;;;;;37.70;25.83;;;;;;;1.31;nan;98293.03;5074481;28;20200;-75
2023/03/03 01:32:21;;;;;;;45.27;27.27;;;;;;;1.52;nan;98290.81;5074397;28;20256;-75
2023/03/03 01:34:48;;;;;;;37.40;25.97;;;;;;;1.56;nan;98303.47;5074424;28;20207;-75
2023/03/03 01:37:14;;;;;;;39.47;27.77;;;;;;;1.53;nan;98302.97;5074480;28;20567;-76
2023/03/03 01:39:41;;;;;;;38.60;25.23;;;;;;;1.64;nan;98302.69;5074347;28;20208;-75
2023/03/03 01:42:08;;;;;;;36.73;26.50;;;;;;;1.56;nan;98297.41;5074160;28;20228;-75
2023/03/03 01:44:34;;;;;;;41.60;26.93;;;;;;;1.51;nan;98297.88;5074179;28;20324;-75
2023/03/03 01:47:09;;;;;;;36.63;26.43;;;;;;;1.69;nan;98300.41;5074429;28;20208;-75
2023/03/03 01:49:49;;;;;;;42.00;27.07;;;;;;;1.60;nan;98294.31;5073860;28;20196;-75
2023/03/03 01:52:23;;;;;;;38.30;26.93;;;;;;;1.59;nan;98294.47;5073791;28;20607;-76
2023/03/03 01:54:54;;;;;;;40.20;26.33;;;;;;;1.63;nan;98290.56;5074096;28;20184;-75
2023/03/03 01:57:31;;;;;;;39.03;26.67;;;;;;;1.55;nan;98287.91;5073689;28;20549;-75
2023/03/03 02:00:00;;;;;;;39.17;26.33;;;;;;;1.46;nan;98287.06;5074043;28;20195;-75
2023/03/03 02:02:28;;;;;;;39.63;26.50;;;;;;;1.44;nan;98285.56;5073581;28;20224;-75
2023/03/03 02:04:54;;;;;;;40.03;26.67;;;;;;;1.19;nan;98283.78;5073839;28;20224;-75
2023/03/03 02:07:23;;;;;;;41.70;26.37;;;;;;;1.23;nan;98291.19;5074503;28;20213;-75
2023/03/03 02:10:06;;;;;;;41.03;27.37;;;;;;;1.13;nan;98282.59;5073858;28;20201;-75
2023/03/03 02:12:48;;;;;;;36.80;25.63;;;;;;;1.06;nan;98281.59;5073717;28;20228;-75
2023/03/03 02:15:24;;;;;;;37.77;25.00;;;;;;;1.04;nan;98278.28;5073524;28;20220;-75
2023/03/03 02:17:54;;;;;;;41.27;26.57;;;;;;;1.08;nan;98277.00;5073457;28;20731;-75
2023/03/03 02:20:24;;;;;;;40.07;26.07;;;;;;;0.99;nan;98267.47;5073774;28;20280;-75
2023/03/03 02:22:59;;;;;;;37.03;26.30;;;;;;;1.00;nan;98273.53;5073413;28;20230;-75
2023/03/03 02:26:13;;;;;;;40.50;26.63;;;;;;;0.96;nan;98272.19;5073581;28;20192;-75
2023/03/03 02:28:40;;;;;;;39.70;26.30;;;;;;;0.93;nan;98268.06;5031250;28;20212;-75
2023/03/03 02:31:11;;;;;;;41.40;27.00;;;;;;;0.98;nan;98272.88;5031142;28;20201;-75
2023/03/03 02:33:42;;;;;;;38.13;25.97;;;;;;;0.89;nan;98271.16;5055036;28;20266;-75
2023/03/03 02:36:17;;;;;;;34.90;24.50;;;;;;;0.86;nan;98267.03;5072918;28;20193;-75
2023/03/03 02:38:49;;;;;;;37.97;26.17;;;;;;;0.88;nan;98269.50;5073314;28;20199;-75
2023/03/03 02:41:26;;;;;;;36.67;25.23;;;;;;;0.76;nan;98266.31;5073336;28;20205;-75
2023/03/03 02:44:05;;;;;;;42.33;27.20;;;;;;;0.82;nan;98270.97;5073269;28;20258;-75
2023/03/03 02:46:36;;;;;;;41.90;27.10;;;;;;;0.83;nan;98277.00;5073619;28;20257;-75
2023/03/03 02:49:04;;;;;;;40.80;27.60;;;;;;;0.84;nan;98281.25;5073273;28;20193;-75
2023/03/03 02:51:31;;;;;;;47.30;28.07;;;;;;;0.74;nan;98273.50;5073696;28;20209;-75
2023/03/03 02:53:57;;;;;;;42.20;28.57;;;;;;;0.84;nan;98279.47;5073280;28;20315;-75
2023/03/03 02:56:24;;;;;;;46.50;29.57;;;;;;;0.94;nan;98284.63;5072922;28;20208;-75
2023/03/03 02:58:50;;;;;;;45.23;28.73;;;;;;;1.01;nan;98286.47;5074105;28;20204;-75
2023/03/03 03:01:17;;;;;;;42.27;28.87;;;;;;;1.06;nan;98280.75;5073294;28;20294;-75
2023/03/03 03:03:44;;;;;;;48.23;30.20;;;;;;;1.11;nan;98271.47;5073141;28;20228;-75
2023/03/03 03:06:10;;;;;;;47.53;29.17;;;;;;;1.16;nan;98284.06;5073045;28;20200;-75
2023/03/03 03:08:37;;;;;;;43.30;28.73;;;;;;;1.25;nan;98288.38;5072979;28;20204;-75
2023/03/03 03:11:04;;;;;;;43.20;28.87;;;;;;;1.29;nan;98284.47;5072915;28;20209;-75
2023/03/03 03:13:31;;;;;;;42.60;29.50;;;;;;;1.47;nan;98283.44;5073273;28;20687;-75
2023/03/03 03:15:58;;;;;;;44.57;29.60;;;;;;;1.53;nan;98282.81;5072720;28;20216;-75
2023/03/03 03:18:25;;;;;;;47.43;28.87;;;;;;;1.53;nan;98279.38;5072892;28;20578;-75
2023/03/03 03:20:51;;;;;;;44.90;30.87;;;;;;;1.63;nan;98285.31;5072612;28;20672;-75
2023/03/03 03:23:18;;;;;;;42.53;29.63;;;;;;;1.62;nan;98281.06;5072803;28;20224;-75
2023/03/03 03:25:45;;;;;;;43.37;29.80;;;;;;;1.69;nan;98284.69;5072471;28;20200;-76
2023/03/03 03:28:17;;;;;;;44.13;30.03;;;;;;;1.80;nan;98284.41;5072828;28;20228;-76
2023/03/03 03:30:44;;;;;;;44.77;29.30;;;;;;;1.90;nan;98285.91;5072555;28;20212;-75
2023/03/03 03:33:11;;;;;;;40.73;28.17;;;;;;;1.98;nan;98282.50;5072544;28;20715;-75
2023/03/03 03:35:39;;;;;;;40.97;28.70;;;;;;;2.03;nan;98280.22;5072453;28;20197;-76
2023/03/03 03:38:05;;;;;;;45.60;30.00;;;;;;;1.98;nan;98293.00;5072860;28;20611;-75
2023/03/03 03:40:32;;;;;;;42.17;27.83;;;;;;;2.02;nan;98292.50;5072744;28;20212;-75
2023/03/03 03:42:58;;;;;;;41.57;29.10;;;;;;;1.94;nan;98281.97;5072404;28;20225;-75
2023/03/03 03:45:24;;;;;;;43.47;29.10;;;;;;;1.97;nan;98288.72;5073207;28;20240;-75
2023/03/03 03:47:51;;;;;;;44.10;28.70;;;;;;;1.99;nan;98292.81;5076446;28;20207;-75
2023/03/03 03:50:17;;;;;;;43.10;29.47;;;;;;;1.99;nan;98292.81;5076316;28;20205;-75
2023/03/03 03:52:43;;;;;;;42.40;29.13;;;;;;;1.96;nan;98284.44;5076141;28;20250;-75
2023/03/03 03:55:10;;;;;;;41.03;28.97;;;;;;;2.03;nan;98282.84;5076890;28;20207;-75
2023/03/03 03:57:37;;;;;;;47.67;29.87;;;;;;;2.03;nan;98286.25;5076839;28;20300;-76
2023/03/03 04:00:05;;;;;;;45.53;30.37;;;;;;;2.06;nan;98285.13;5076204;28;20204;-75
2023/03/03 04:02:32;;;;;;;45.80;29.67;;;;;;;1.97;nan;98281.69;5076464;28;20320;-75
2023/03/03 04:04:58;;;;;;;42.00;29.10;;;;;;;1.97;nan;98280.84;5076122;28;20587;-75
2023/03/03 04:07:24;;;;;;;43.97;28.90;;;;;;;2.06;nan;98285.97;5076081;28;20209;-76
2023/03/03 04:09:51;;;;;;;41.67;28.87;;;;;;;2.10;nan;98279.41;5076028;28;20211;-75
2023/03/03 04:12:17;;;;;;;45.10;28.83;;;;;;;2.14;nan;98278.13;5076001;28;20220;-76
2023/03/03 04:14:44;;;;;;;47.50;29.43;;;;;;;2.15;nan;98284.16;5075894;28;20291;-75
2023/03/03 04:17:21;;;;;;;44.40;29.10;;;;;;;2.14;nan;98285.16;5075852;28;20199;-75
2023/03/03 04:19:48;;;;;;;44.03;29.13;;;;;;;2.14;nan;98285.16;5075613;28;20659;-75
2023/03/03 04:22:14;;;;;;;42.30;28.17;;;;;;;2.18;nan;98282.06;5075476;28;20232;-75
2023/03/03 04:24:41;;;;;;;45.57;29.23;;;;;;;2.23;nan;98292.06;5075746;28;20217;-75
2023/03/03 04:27:08;;;;;;;39.27;27.83;;;;;;;2.31;nan;98295.50;5075760;28;20204;-75
2023/03/03 04:29:35;;;;;;;47.70;30.27;;;;;;;2.21;nan;98301.91;5075388;28;20832;-75
2023/03/03 04:32:01;;;;;;;45.27;29.77;;;;;;;2.27;nan;98293.38;5076402;28;20234;-75
2023/03/03 04:34:28;;;;;;;41.90;28.17;;;;;;;2.30;nan;98303.56;5075621;28;20564;-75
2023/03/03 04:36:54;;;;;;;43.07;28.23;;;;;;;2.28;nan;98301.09;5075520;28;20226;-76
2023/03/03 04:39:20;;;;;;;44.30;29.50;;;;;;;2.28;nan;98293.22;5075530;28;20211;-75
2023/03/03 04:41:47;;;;;;;42.23;29.13;;;;;;;2.30;nan;98298.31;5074948;28;20229;-75
2023/03/03 04:44:13;;;;;;;44.40;29.23;;;;;;;2.30;nan;98300.94;5074915;28;20220;-75
2023/03/03 04:46:40;;;;;;;42.27;27.93;;;;;;;2.34;nan;98305.69;5075043;28;20215;-75
2023/03/03 04:49:07;;;;;;;42.60;28.80;;;;;;;2.35;nan;98309.94;5074892;28;20557;-75
2023/03/03 04:51:34;;;;;;;46.53;30.43;;;;;;;2.37;nan;98309.78;5075170;28;20208;-75
2023/03/03 04:54:00;;;;;;;43.33;27.83;;;;;;;2.40;nan;98314.72;5075185;28;20196;-75
2023/03/03 04:56:27;;;;;;;41.20;28.10;;;;;;;2.44;nan;98316.03;5074789;28;20219;-76
2023/03/03 04:58:54;;;;;;;41.67;28.77;;;;;;;2.47;nan;98315.69;5074952;28;20656;-76
2023/03/03 05:01:20;;;;;;;43.60;28.70;;;;;;;2.50;nan;98316.22;5074779;28;20215;-76
2023/03/03 05:03:47;;;;;;;42.47;27.30;;;;;;;2.43;nan;98314.41;5074183;28;20220;-76
2023/03/03 05:06:13;;;;;;;44.73;29.57;;;;;;;2.47;nan;98320.94;5074763;28;20219;-75
2023/03/03 05:08:42;;;;;;;41.77;28.40;;;;;;;2.42;nan;98318.81;5074689;28;20211;-75
2023/03/03 05:11:08;;;;;;;42.03;28.43;;;;;;;2.48;nan;98323.41;5074600;28;20258;-76
2023/03/03 05:13:35;;;;;;;44.40;29.23;;;;;;;2.48;nan;98312.13;5074489;28;20228;-76
2023/03/03 05:16:01;;;;;;;46.63;29.57;;;;;;;2.52;nan;98308.19;5074364;28;20262;-75
2023/03/03 05:18:28;;;;;;;47.73;28.50;;;;;;;2.50;nan;98315.38;5074243;28;20208;-75
2023/03/03 05:20:54;;;;;;;42.07;28.63;;;;;;;2.49;nan;98316.38;5074451;28;20296;-75
2023/03/03 05:23:21;;;;;;;40.47;28.17;;;;;;;2.54;nan;98321.94;5074285;28;20224;-75
2023/03/03 05:25:48;;;;;;;42.60;29.23;;;;;;;2.57;nan;98319.81;5074654;28;20243;-75
2023/03/03 05:28:15;;;;;;;45.77;28.77;;;;;;;2.51;nan;98317.84;5074407;28;20205;-75
2023/03/03 05:30:42;;;;;;;43.70;29.37;;;;;;;2.42;nan;98325.84;5074100;28;20208;-75
2023/03/03 05:33:12;;;;;;;42.60;28.00;;;;;;;2.44;nan;98329.97;5073949;28;20224;-75
2023/03/03 05:35:38;;;;;;;39.57;27.47;;;;;;;2.49;nan;98325.06;5074377;28;20185;-76
2023/03/03 05:38:05;;;;;;;43.17;28.77;;;;;;;2.41;nan;98322.44;5074261;28;20208;-75
2023/03/03 05:40:31;;;;;;;33.27;24.20;;;;;;;2.63;nan;98326.22;5074122;28;20303;-75
2023/03/03 05:42:58;;;;;;;40.43;26.73;;;;;;;2.49;nan;98329.50;5073616;28;20297;-75
2023/03/03 05:45:24;;;;;;;40.60;27.03;;;;;;;2.51;nan;98336.22;5073978;28;20589;-75
2023/03/03 05:47:54;;;;;;;39.00;25.77;;;;;;;2.73;nan;98347.88;5074083;28;20573;-75
2023/03/03 05:50:22;;;;;;;38.17;23.70;;;;;;;2.51;nan;98345.88;5073688;28;20205;-75
2023/03/03 05:52:49;;;;;;;37.77;24.10;;;;;;;2.56;nan;98348.84;5073634;28;20220;-75
2023/03/03 05:55:16;;;;;;;37.17;26.03;;;;;;;2.38;nan;98354.22;5073933;28;20197;-75
2023/03/03 05:57:43;;;;;;;38.63;24.97;;;;;;;2.45;nan;98351.78;5073786;28;20564;-75
2023/03/03 06:00:12;;;;;;;37.07;22.87;;;;;;;2.63;nan;98352.47;5073902;28;20204;-75
2023/03/03 06:02:38;;;;;;;37.80;23.57;;;;;;;2.52;nan;98352.78;5073482;28;20228;-75
2023/03/03 06:05:05;;;;;;;36.17;23.77;;;;;;;2.49;nan;98353.91;5073654;28;20220;-76
2023/03/03 06:07:31;;;;;;;35.60;24.33;;;;;;;2.55;nan;98350.66;5073782;28;20652;-75
2023/03/03 06:09:58;;;;;;;36.13;24.13;;;;;;;2.53;nan;98352.63;5072721;28;20226;-75
2023/03/03 06:12:24;;;;;;;29.90;22.37;;;;;;;2.54;nan;98361.31;5073462;28;20229;-75
2023/03/03 06:14:50;;;;;;;34.23;22.80;;;;;;;2.58;nan;98368.69;5073412;28;20286;-75
2023/03/03 06:17:17;;;;;;;35.13;22.17;;;;;;;2.62;nan;98366.59;5073543;28;20189;-75
2023/03/03 06:19:43;;;;;;;33.10;23.00;;;;;;;2.53;nan;98370.19;5073592;28;20212;-75
2023/03/03 06:22:09;;;;;;;28.80;21.47;;;;;;;2.57;nan;98363.63;5073553;28;20220;-76
2023/03/03 06:24:36;;;;;;;35.30;23.97;;;;;;;2.55;nan;98363.78;5073367;28;20224;-75
2023/03/03 06:27:02;;;;;;;34.13;21.37;;;;;;;2.60;nan;98371.16;5073094;28;20208;-75
2023/03/03 06:29:29;;;;;;;32.60;21.23;;;;;;;2.56;nan;98370.66;5073358;28;20211;-75
2023/03/03 06:31:55;;;;;;;29.97;21.37;;;;;;;2.57;nan;98374.94;5073051;28;20224;-75
2023/03/03 06:34:21;;;;;;;33.43;20.43;;;;;;;2.65;nan;98382.00;5073668;28;20211;-75
2023/03/03 06:36:48;;;;;;;32.10;21.73;;;;;;;2.73;nan;98389.88;5073470;28;20201;-75
2023/03/03 06:39:14;;;;;;;32.20;22.33;;;;;;;2.65;nan;98393.31;5072818;28;20729;-75
2023/03/03 06:41:41;;;;;;;29.50;21.53;;;;;;;2.70;nan;98388.41;5072871;28;20205;-75
2023/03/03 06:44:07;;;;;;;34.07;23.77;;;;;;;2.67;nan;98386.09;5073447;28;20223;-75
2023/03/03 06:46:34;;;;;;;34.43;22.13;;;;;;;2.60;nan;98392.16;5072591;28;20217;-75
2023/03/03 06:49:00;;;;;;;32.67;23.10;;;;;;;2.71;nan;98395.28;5073079;28;20204;-75
2023/03/03 06:51:37;;;;;;;34.40;23.57;;;;;;;2.68;nan;98394.81;5073080;28;20210;-75
2023/03/03 06:54:11;;;;;;;32.07;21.93;;;;;;;2.85;nan;98394.66;5073239;28;20303;-75
2023/03/03 06:56:38;;;;;;;35.37;22.27;;;;;;;2.72;nan;98406.63;5072808;28;20582;-75
2023/03/03 06:59:19;;;;;;;35.00;23.10;;;;;;;2.81;nan;98406.50;5072855;28;20200;-75
2023/03/03 07:01:48;;;;;;;34.30;22.73;;;;;;;2.72;nan;98407.47;5072867;28;20254;-75
2023/03/03 07:04:32;;;;;;;33.37;22.63;;;;;;;2.73;nan;98416.13;5072619;28;20204;-75
2023/03/03 07:07:05;;;;;;;35.93;24.20;;;;;;;2.73;nan;98408.25;5072888;28;20189;-74
2023/03/03 07:09:32;;;;;;;31.90;21.70;;;;;;;2.86;nan;98406.00;5072969;28;20196;-74
2023/03/03 07:12:06;;;;;;;35.03;21.37;;;;;;;2.98;nan;98416.00;5072436;28;20232;-74
2023/03/03 07:14:35;;;;;;;31.07;20.00;;;;;;;3.12;nan;98412.72;5072904;28;20191;-74
2023/03/03 07:17:04;;;;;;;33.73;22.10;;;;;;;2.83;nan;98412.38;5071592;28;20196;-74
2023/03/03 07:19:36;;;;;;;31.83;20.47;;;;;;;3.06;nan;98416.03;5071235;28;20209;-74
2023/03/03 07:22:15;;;;;;;32.73;20.83;;;;;;;2.92;nan;98414.03;5075500;28;20224;-75
2023/03/03 07:24:44;;;;;;;28.97;19.70;;;;;;;3.10;nan;98416.50;5076667;28;20213;-75
2023/03/03 07:27:12;;;;;;;24.53;17.90;;;;;;;3.24;nan;98419.31;5076567;28;20204;-75
2023/03/03 07:29:40;;;;;;;27.13;19.30;;;;;;;3.31;nan;98420.31;5076339;28;20208;-75
2023/03/03 07:32:20;;;;;;;27.17;20.67;;;;;;;3.17;nan;98420.13;5076371;28;20220;-75
2023/03/03 07:34:49;;;;;;;28.77;20.10;;;;;;;3.05;nan;98422.28;5076467;28;20185;-75
2023/03/03 07:37:37;;;;;;;28.53;19.67;;;;;;;3.13;nan;98422.28;5076072;28;20208;-72
2023/03/03 07:40:27;;;;;;;28.30;20.20;;;;;;;3.18;nan;98424.41;5075036;28;20200;-73
2023/03/03 07:42:53;;;;;;;29.67;19.87;;;;;;;3.45;nan;98429.31;5070303;28;20224;-73
2023/03/03 07:45:27;;;;;;;28.93;19.10;;;;;;;3.47;nan;98427.34;5070314;28;20699;-80
2023/03/03 07:48:19;;;;;;;28.03;19.37;;;;;;;3.58;nan;98424.41;5055838;28;20543;-72
2023/03/03 07:50:46;;;;;;;29.57;20.80;;;;;;;3.29;nan;98429.34;5054877;28;20185;-72
2023/03/03 07:53:27;;;;;;;30.67;19.63;;;;;;;3.22;nan;98429.19;5055812;28;20229;-72
2023/03/03 07:55:54;;;;;;;32.70;21.50;;;;;;;3.42;nan;98429.66;5056084;28;20194;-71
2023/03/03 07:58:39;;;;;;;28.90;20.93;;;;;;;3.65;nan;98431.44;5055750;28;20292;-71
2023/03/03 08:01:28;;;;;;;25.93;19.50;;;;;;;3.76;nan;98444.22;5055525;28;20197;-71
2023/03/03 08:03:55;;;;;;;34.13;20.57;;;;;;;3.90;nan;98440.13;5055863;28;20205;-71
2023/03/03 08:06:44;;;;;;;28.23;20.27;;;;;;;4.26;nan;98444.78;5055736;28;20228;-72
2023/03/03 08:09:10;;;;;;;27.93;19.87;;;;;;;4.02;nan;98441.41;5055184;28;20193;-71
2023/03/03 08:12:06;;;;;;;28.77;21.90;;;;;;;3.93;nan;98445.06;5055758;28;20216;-71
2023/03/03 08:14:37;;;;;;;31.67;22.03;;;;;;;3.83;nan;98452.28;5046013;28;20692;-72
2023/03/03 08:17:36;;;;;;;32.37;21.27;;;;;;;3.91;nan;98449.63;5054851;28;20653;-71
2023/03/03 08:20:29;;;;;;;33.60;21.60;;;;;;;3.98;nan;98451.44;5047319;28;20209;-71
2023/03/03 08:22:55;;;;;;;33.00;21.67;;;;;;;3.92;nan;98444.22;5055088;28;20225;-71
2023/03/03 08:25:22;;;;;;;31.53;21.33;;;;;;;3.84;nan;98440.78;5055213;28;20232;-71
2023/03/03 08:27:48;;;;;;;33.70;21.13;;;;;;;3.84;nan;98446.06;5055297;28;20201;-71
2023/03/03 08:30:15;;;;;;;29.83;20.93;;;;;;;3.94;nan;98438.78;5055326;28;20209;-71
2023/03/03 08:32:41;;;;;;;28.60;20.93;;;;;;;3.84;nan;98435.53;5054493;28;20233;-71
2023/03/03 08:35:08;;;;;;;29.63;20.43;;;;;;;4.03;nan;98446.47;5055647;28;20205;-71
2023/03/03 08:37:34;;;;;;;29.30;20.17;;;;;;;3.62;nan;98446.75;5055396;28;20216;-71
2023/03/03 08:40:01;;;;;;;28.80;19.33;;;;;;;4.11;nan;98443.84;5055339;28;20293;-71
2023/03/03 08:42:28;;;;;;;27.30;19.03;;;;;;;3.87;nan;98433.38;5055281;28;20320;-71
2023/03/03 08:44:55;;;;;;;29.20;19.53;;;;;;;4.02;nan;98439.59;5054790;28;20679;-71
2023/03/03 08:47:21;;;;;;;31.83;19.33;;;;;;;3.73;nan;98438.50;5054927;28;20228;-71
2023/03/03 08:49:48;;;;;;;25.77;18.47;;;;;;;3.77;nan;98437.19;5055032;28;20212;-71
2023/03/03 08:52:14;;;;;;;23.80;17.90;;;;;;;3.96;nan;98442.91;5054940;28;20231;-71
2023/03/03 08:54:40;;;;;;;23.57;17.23;;;;;;;4.14;nan;98447.94;5055102;28;20370;-71
2023/03/03 08:57:07;;;;;;;27.77;17.83;;;;;;;4.35;nan;98456.09;5055104;28;20205;-71
2023/03/03 08:59:37;;;;;;;23.43;17.13;;;;;;;4.39;nan;98455.56;5054940;28;20206;-71
2023/03/03 09:02:05;;;;;;;29.00;17.07;;;;;;;4.07;nan;98457.50;5054430;28;20791;-71
2023/03/03 09:04:31;;;;;;;22.67;16.63;;;;;;;4.02;nan;98467.72;5054398;28;20229;-71
2023/03/03 09:06:58;;;;;;;24.63;17.70;;;;;;;3.93;nan;98473.97;5054685;28;20229;-72
2023/03/03 09:09:24;;;;;;;24.50;17.30;;;;;;;4.24;nan;98472.25;5054489;28;20676;-72
2023/03/03 09:11:57;;;;;;;25.03;17.20;;;;;;;4.30;nan;98477.66;5054720;28;20225;-72
2023/03/03 09:14:28;;;;;;;23.00;17.37;;;;;;;4.49;nan;98479.91;5053627;28;20193;-72
2023/03/03 09:16:56;;;;;;;25.97;17.10;;;;;;;4.39;nan;98479.25;5055128;28;20185;-72
2023/03/03 09:19:31;;;;;;;23.50;17.27;;;;;;;4.12;nan;98477.03;5054743;28;20228;-71
2023/03/03 09:22:24;;;;;;;28.60;18.13;;;;;;;4.24;nan;98480.97;5054548;28;20579;-72
2023/03/03 09:24:54;;;;;;;25.77;17.57;;;;;;;4.54;nan;98489.91;5054414;28;20189;-71
2023/03/03 09:27:29;;;;;;;26.47;18.80;;;;;;;4.51;nan;98492.88;5054486;28;20201;-72
2023/03/03 09:30:01;;;;;;;25.43;18.67;;;;;;;4.92;nan;98481.16;5053968;28;20205;-71
2023/03/03 09:32:34;;;;;;;24.17;18.43;;;;;;;5.09;nan;98488.00;5054144;28;20221;-71
2023/03/03 09:35:37;;;;;;;24.70;18.90;;;;;;;5.20;nan;98488.41;5054049;28;20185;-71
2023/03/03 09:38:28;;;;;;;23.03;18.43;;;;;;;5.07;nan;98487.38;5053836;28;20204;-71
2023/03/03 09:41:39;;;;;;;27.60;18.70;;;;;;;5.41;nan;98482.50;5053740;28;20200;-71
2023/03/03 09:44:22;;;;;;;23.40;17.97;;;;;;;5.44;nan;98484.78;5053627;28;20207;-72
2023/03/03 09:47:06;;;;;;;28.07;19.07;;;;;;;5.63;nan;98479.03;5053854;28;20236;-71
2023/03/03 09:49:47;;;;;;;27.83;19.73;;;;;;;5.65;nan;98484.97;5053750;28;20206;-72
2023/03/03 09:52:37;;;;;;;30.33;20.57;;;;;;;5.59;nan;98477.75;5053819;28;20221;-71
2023/03/03 09:55:18;;;;;;;24.43;19.47;;;;;;;5.67;nan;98477.69;5053872;28;20190;-72
2023/03/03 09:58:04;;;;;;;25.40;19.77;;;;;;;5.64;nan;98478.03;5053661;28;20663;-71
2023/03/03 10:00:36;;;;;;;26.63;20.53;;;;;;;5.55;nan;98484.38;5053951;28;20189;-71
2023/03/03 10:03:23;;;;;;;28.00;19.43;;;;;;;6.02;nan;98480.50;5053756;28;20221;-71
2023/03/03 10:06:04;;;;;;;24.67;19.27;;;;;;;6.11;nan;98490.00;5053834;28;20567;-72
2023/03/03 10:08:57;;;;;;;28.03;20.43;;;;;;;5.86;nan;98479.84;5053295;28;20666;-72
2023/03/03 10:11:50;;;;;;;24.53;18.67;;;;;;;6.72;nan;98494.09;5053653;28;20201;-72
2023/03/03 10:14:19;;;;;;;26.70;20.50;;;;;;;6.41;nan;98488.19;5053253;28;20186;-72
2023/03/03 10:16:51;;;;;;;27.43;21.00;;;;;;;6.40;nan;98499.75;5053745;28;20205;-72
2023/03/03 10:19:36;;;;;;;28.10;20.13;;;;;;;6.40;nan;98483.91;5053188;28;20190;-72
2023/03/03 10:22:12;;;;;;;29.63;21.47;;;;;;;6.58;nan;98493.13;5052980;28;20225;-72
2023/03/03 10:24:59;;;;;;;30.27;21.57;;;;;;;6.61;nan;98490.09;5053255;28;20207;-72
2023/03/03 10:27:58;;;;;;;26.50;20.17;;;;;;;6.36;nan;98486.13;5052282;28;20209;-71
2023/03/03 10:30:47;;;;;;;27.97;19.40;;;;;;;6.39;nan;98485.75;5053356;28;20194;-71
2023/03/03 10:33:38;;;;;;;31.63;21.07;;;;;;;6.48;nan;98494.41;5053228;28;20232;-71
2023/03/03 10:36:20;;;;;;;27.17;20.03;;;;;;;6.81;nan;98490.34;5052882;28;20655;-71
2023/03/03 10:39:00;;;;;;;30.10;20.83;;;;;;;6.73;nan;98488.63;5053272;28;20556;-71
2023/03/03 10:41:59;;;;;;;29.30;22.17;;;;;;;6.38;nan;98489.38;5052027;28;20554;-72
2023/03/03 10:44:53;;;;;;;25.87;20.03;;;;;;;6.75;nan;98491.91;5052987;28;20205;-72
2023/03/03 10:47:48;;;;;;;25.57;21.30;;;;;;;6.40;nan;98490.03;5053165;28;20224;-71
2023/03/03 10:50:42;;;;;;;32.30;21.03;;;;;;;5.89;nan;98487.41;5051790;28;20616;-71
2023/03/03 10:53:20;;;;;;;30.07;21.40;;;;;;;5.76;nan;98492.44;5052947;28;20228;-71
2023/03/03 10:56:11;;;;;;;28.90;20.80;;;;;;;5.89;nan;98476.88;5053963;28;20204;-71
2023/03/03 10:58:45;;;;;;;26.70;20.57;;;;;;;6.47;nan;98476.91;5057425;28;20190;-71
2023/03/03 11:01:29;;;;;;;31.80;22.30;;;;;;;6.71;nan;98484.53;5057010;28;20185;-72
2023/03/03 11:04:13;;;;;;;28.20;21.23;;;;;;;6.84;nan;98490.00;5056935;28;20202;-74
2023/03/03 11:06:51;;;;;;;29.10;22.00;;;;;;;6.43;nan;98489.66;5054930;28;20225;-75
2023/03/03 11:09:33;;;;;;;27.90;20.80;;;;;;;6.46;nan;98476.09;5054337;28;20687;-75
2023/03/03 11:12:21;;;;;;;27.23;19.50;;;;;;;7.04;nan;98485.75;5054025;28;20274;-75
2023/03/03 11:15:13;;;;;;;27.87;21.40;;;;;;;7.19;nan;98489.19;5054730;28;20209;-75
2023/03/03 11:18:17;;;;;;;28.83;20.87;;;;;;;7.36;nan;98483.47;5054106;28;20207;-75
2023/03/03 11:21:01;;;;;;;28.00;20.07;;;;;;;7.49;nan;98493.34;5055621;28;20211;-75
2023/03/03 11:23:38;;;;;;;30.57;21.50;;;;;;;7.48;nan;98489.91;5056751;28;20236;-75
2023/03/03 11:26:28;;;;;;;25.23;19.27;;;;;;;8.06;nan;98488.78;5057062;28;20212;-75
2023/03/03 11:29:27;;;;;;;28.50;20.77;;;;;;;7.98;nan;98494.22;5055145;28;20209;-75
2023/03/03 11:32:10;;;;;;;25.63;18.90;;;;;;;8.15;nan;98495.56;5033303;28;20235;-75
2023/03/03 11:34:59;;;;;;;29.03;20.17;;;;;;;7.81;nan;98496.31;5056572;28;20196;-75
2023/03/03 11:38:04;;;;;;;25.73;20.30;;;;;;;7.99;nan;98493.19;5055220;28;20193;-75
2023/03/03 11:40:38;;;;;;;24.40;19.80;;;;;;;8.08;nan;98481.44;5014284;28;20207;-75
2023/03/03 11:43:23;;;;;;;26.03;19.37;;;;;;;7.84;nan;98476.59;5046230;28;20235;-75
2023/03/03 11:45:57;;;;;;;24.70;18.47;;;;;;;8.20;nan;98480.75;5056458;28;20259;-75
2023/03/03 11:48:58;;;;;;;26.20;19.20;;;;;;;8.13;nan;98477.22;5055740;28;20188;-74
2023/03/03 11:51:53;;;;;;;27.43;20.40;;;;;;;7.97;nan;98474.03;5054694;28;20190;-74
2023/03/03 11:54:24;;;;;;;25.10;19.37;;;;;;;8.07;nan;98471.88;5053664;28;20209;-75
2023/03/03 11:56:56;;;;;;;25.87;19.77;;;;;;;8.54;nan;98461.38;5052352;28;20201;-75
2023/03/03 11:59:42;;;;;;;25.13;19.17;;;;;;;8.12;nan;98469.47;5053966;28;20205;-74
2023/03/03 12:02:42;;;;;;;28.07;20.63;;;;;;;8.23;nan;98461.03;5053575;28;20247;-75
2023/03/03 12:05:27;;;;;;;23.87;19.10;;;;;;;8.39;nan;98461.53;5053717;28;20204;-75
2023/03/03 12:08:13;;;;;;;27.63;19.87;;;;;;;8.29;nan;98453.09;5052275;28;20243;-75
2023/03/03 12:11:13;;;;;;;25.73;19.30;;;;;;;7.67;nan;98451.41;5055209;28;20530;-75